createdAt,value
2023-04-02T00:01:02.136Z,9.74
2023-04-02T00:16:07.571Z,9.60
2023-04-02T00:31:11.609Z,9.60
2023-04-02T00:46:22.246Z,9.78
2023-04-02T01:01:28.716Z,9.99
2023-04-02T01:16:31.153Z,9.73
2023-04-02T01:31:34.582Z,9.85
2023-04-02T01:46:41.601Z,10.01
2023-04-02T02:01:59.253Z,10.12
2023-04-02T02:17:04.365Z,10.06
2023-04-02T02:32:07.613Z,10.20
2023-04-02T02:47:15.098Z,10.05
2023-04-02T03:02:17.492Z,10.00
2023-04-02T03:17:35.847Z,9.81
2023-04-02T03:32:41.133Z,9.95
2023-04-02T03:48:01.355Z,9.97
2023-04-02T04:03:36.249Z,9.95
2023-04-02T04:18:44.067Z,9.98
2023-04-02T04:33:50.841Z,10.13
2023-04-02T04:49:02.078Z,9.04
2023-04-02T05:04:23.011Z,10.17
2023-04-02T05:19:46.642Z,9.51
2023-04-02T05:34:53.731Z,9.52
2023-04-02T05:50:01.253Z,9.55
2023-04-02T06:05:17.127Z,9.77
2023-04-02T06:20:21.414Z,10.67
2023-04-02T06:35:23.694Z,11.55
2023-04-02T06:51:07.257Z,13.99
2023-04-02T07:06:15.702Z,15.51
2023-04-02T07:21:17.715Z,17.30
2023-04-02T07:36:23.191Z,18.50
2023-04-02T07:51:26.760Z,18.44
2023-04-02T08:06:29.412Z,17.89
2023-04-02T08:21:31.780Z,16.18
2023-04-02T08:36:37.876Z,14.98
2023-04-02T08:51:40.316Z,16.32
2023-04-02T09:06:43.976Z,17.66
2023-04-02T09:22:01.983Z,18.50
2023-04-02T09:37:15.532Z,18.70
2023-04-02T09:52:28.801Z,18.02
2023-04-02T10:07:38.579Z,18.20
2023-04-02T10:22:46.730Z,19.04
2023-04-02T10:38:07.340Z,18.95
2023-04-02T10:53:17.215Z,17.40
2023-04-02T11:08:24.102Z,17.27
2023-04-02T11:23:32.757Z,16.14
2023-04-02T11:38:46.595Z,16.92
2023-04-02T11:53:50.318Z,16.74
2023-04-02T12:09:06.030Z,16.68
2023-04-02T12:24:19.729Z,17.17
2023-04-02T12:39:22.286Z,17.12
2023-04-02T12:54:24.510Z,17.98
2023-04-02T13:09:31.630Z,17.94
2023-04-02T13:24:34.333Z,17.32
2023-04-02T13:39:36.888Z,16.82
2023-04-02T13:54:49.008Z,16.55
2023-04-02T14:10:04.348Z,16.62
2023-04-02T14:25:23.378Z,16.89
2023-04-02T14:40:40.258Z,16.19
2023-04-02T14:55:49.469Z,16.15
2023-04-02T15:11:16.526Z,17.01
2023-04-02T15:26:44.587Z,16.79
2023-04-02T15:42:18.868Z,16.64
2023-04-02T15:57:32.485Z,16.57
2023-04-02T16:12:37.238Z,16.42
2023-04-02T16:27:45.467Z,16.38
2023-04-02T16:43:11.679Z,15.91
2023-04-02T16:58:19.420Z,15.52
2023-04-02T17:13:41.791Z,15.05
2023-04-02T17:28:47.912Z,14.60
2023-04-02T17:43:58.666Z,14.40
2023-04-02T18:07:02.026Z,14.49
2023-04-02T18:22:33.195Z,13.79
2023-04-02T18:37:56.516Z,13.55
2023-04-02T18:52:58.598Z,13.52
2023-04-02T19:08:10.407Z,13.48
2023-04-02T19:23:31.085Z,13.23
2023-04-02T19:39:02.416Z,13.30
2023-04-02T19:54:04.647Z,13.15
2023-04-02T20:09:08.333Z,12.59
2023-04-02T20:24:10.281Z,12.38
2023-04-02T20:39:18.098Z,12.30
2023-04-02T20:54:20.021Z,12.21
2023-04-02T21:09:22.097Z,11.95
2023-04-02T21:24:24.062Z,11.82
2023-04-02T21:39:26.037Z,11.62
2023-04-02T21:54:28.043Z,11.59
2023-04-02T22:09:29.941Z,11.39
2023-04-02T22:24:31.867Z,11.23
2023-04-02T22:39:33.781Z,10.94
2023-04-02T22:54:35.846Z,10.80
2023-04-02T23:09:37.811Z,10.68
2023-04-02T23:24:39.701Z,10.56
2023-04-02T23:39:41.747Z,10.24
2023-04-02T23:54:43.701Z,10.18
